Millboro Springs, Virginia
Current Conditions -  °F | °C
As of 2:15 PM on Friday 28 Nov 2014 (Local Time) from KHSP Reporting Station
Clear Clear  
Wind Chill: 10°   Ceiling: Unl
Heat Index: 22°   Visibility: 10mi
Dew Point: 13°   Wind: 13mph
Humidity: 66%   Direction: 280°W
Pressure: 30.11"   Gusts: NA
Location:  38.028°N, 79.6492°W
Report Text: KHSP 281915Z AUTO 28011KT 10SM CLR M05/M11 A3011 RMK AO2 T10531107
Loading
Personal Weather Stations






























Interactive Weather Map New forecast layout! Learn more

10-Day Weather Forecast

Advertisements
Track Severe Weather on mobile